sensor_id;sensor_type;location;lat;lon;timestamp;pressure;altitude;pressure_sealevel;temperature;humidity
62524;BME280;53689;56.878;60.672;2023-10-19T00:00:12;97434.03;;;20.64;29.95
62524;BME280;53689;56.878;60.672;2023-10-19T00:02:40;97431.09;;;20.65;29.67
62524;BME280;53689;56.878;60.672;2023-10-19T00:05:09;97427.38;;;20.66;29.47
62524;BME280;53689;56.878;60.672;2023-10-19T00:07:37;97423.72;;;20.47;29.18
62524;BME280;53689;56.878;60.672;2023-10-19T00:10:06;97422.47;;;20.50;27.67
62524;BME280;53689;56.878;60.672;2023-10-19T00:12:35;97421.03;;;20.47;28.90
62524;BME280;53689;56.878;60.672;2023-10-19T00:15:03;97417.34;;;20.21;28.93
62524;BME280;53689;56.878;60.672;2023-10-19T00:17:31;97419.84;;;20.23;28.80
62524;BME280;53689;56.878;60.672;2023-10-19T00:19:59;97420.19;;;20.60;28.40
62524;BME280;53689;56.878;60.672;2023-10-19T00:22:27;97426.53;;;20.73;28.38
62524;BME280;53689;56.878;60.672;2023-10-19T00:24:54;97426.84;;;20.31;29.02
62524;BME280;53689;56.878;60.672;2023-10-19T00:27:23;97421.47;;;20.37;28.97
62524;BME280;53689;56.878;60.672;2023-10-19T00:29:53;97425.38;;;20.48;30.16
62524;BME280;53689;56.878;60.672;2023-10-19T00:32:21;97427.66;;;20.45;29.34
62524;BME280;53689;56.878;60.672;2023-10-19T00:34:50;97427.03;;;20.43;28.29
62524;BME280;53689;56.878;60.672;2023-10-19T00:37:19;97427.47;;;20.40;29.07
62524;BME280;53689;56.878;60.672;2023-10-19T00:39:47;97428.47;;;20.52;28.73
62524;BME280;53689;56.878;60.672;2023-10-19T00:42:15;97430.38;;;20.38;28.80
62524;BME280;53689;56.878;60.672;2023-10-19T00:44:43;97437.34;;;20.59;29.16
62524;BME280;53689;56.878;60.672;2023-10-19T00:47:13;97446.09;;;20.28;28.38
62524;BME280;53689;56.878;60.672;2023-10-19T00:49:42;97440.50;;;20.29;29.60
62524;BME280;53689;56.878;60.672;2023-10-19T00:52:10;97446.63;;;20.63;28.96
62524;BME280;53689;56.878;60.672;2023-10-19T00:54:40;97449.41;;;20.30;28.51
62524;BME280;53689;56.878;60.672;2023-10-19T00:57:08;97449.19;;;20.24;28.56
62524;BME280;53689;56.878;60.672;2023-10-19T00:59:37;97441.75;;;20.27;29.21
62524;BME280;53689;56.878;60.672;2023-10-19T01:02:05;97444.44;;;20.20;28.80
62524;BME280;53689;56.878;60.672;2023-10-19T01:04:36;97442.72;;;20.59;28.97
62524;BME280;53689;56.878;60.672;2023-10-19T01:07:03;97452.91;;;20.37;28.06
62524;BME280;53689;56.878;60.672;2023-10-19T01:09:31;97435.13;;;20.43;29.98
62524;BME280;53689;56.878;60.672;2023-10-19T01:12:00;97446.72;;;20.30;29.74
62524;BME280;53689;56.878;60.672;2023-10-19T01:14:28;97452.94;;;20.30;29.95
62524;BME280;53689;56.878;60.672;2023-10-19T01:17:00;97448.78;;;20.34;28.63
62524;BME280;53689;56.878;60.672;2023-10-19T01:19:28;97451.84;;;20.45;29.44
62524;BME280;53689;56.878;60.672;2023-10-19T01:21:57;97449.31;;;20.70;29.92
62524;BME280;53689;56.878;60.672;2023-10-19T01:24:27;97445.00;;;20.62;29.89
62524;BME280;53689;56.878;60.672;2023-10-19T01:26:54;97448.88;;;20.87;30.36
62524;BME280;53689;56.878;60.672;2023-10-19T01:29:22;97453.66;;;20.64;29.81
62524;BME280;53689;56.878;60.672;2023-10-19T01:31:50;97448.44;;;20.90;29.52
62524;BME280;53689;56.878;60.672;2023-10-19T01:34:18;97445.56;;;20.78;30.38
62524;BME280;53689;56.878;60.672;2023-10-19T01:36:46;97447.88;;;20.61;28.89
62524;BME280;53689;56.878;60.672;2023-10-19T01:39:14;97451.03;;;20.51;30.19
62524;BME280;53689;56.878;60.672;2023-10-19T01:41:46;97460.53;;;20.47;29.18
62524;BME280;53689;56.878;60.672;2023-10-19T01:44:13;97459.50;;;20.48;29.36
62524;BME280;53689;56.878;60.672;2023-10-19T01:46:42;97458.22;;;20.64;29.14
62524;BME280;53689;56.878;60.672;2023-10-19T01:49:09;97463.34;;;20.79;29.51
62524;BME280;53689;56.878;60.672;2023-10-19T01:51:37;97469.56;;;20.79;29.42
62524;BME280;53689;56.878;60.672;2023-10-19T01:54:05;97470.47;;;20.33;30.13
62524;BME280;53689;56.878;60.672;2023-10-19T01:56:34;97478.13;;;19.75;30.11
62524;BME280;53689;56.878;60.672;2023-10-19T01:59:03;97465.63;;;19.34;29.81
62524;BME280;53689;56.878;60.672;2023-10-19T02:01:32;97473.91;;;19.46;30.21
62524;BME280;53689;56.878;60.672;2023-10-19T02:04:03;97469.66;;;19.92;30.05
62524;BME280;53689;56.878;60.672;2023-10-19T02:06:32;97474.63;;;20.08;31.04
62524;BME280;53689;56.878;60.672;2023-10-19T02:09:02;97472.97;;;20.14;30.87
62524;BME280;53689;56.878;60.672;2023-10-19T02:11:30;97466.56;;;20.08;31.19
62524;BME280;53689;56.878;60.672;2023-10-19T02:13:57;97468.66;;;20.27;29.98
62524;BME280;53689;56.878;60.672;2023-10-19T02:16:26;97469.84;;;20.51;30.34
62524;BME280;53689;56.878;60.672;2023-10-19T02:18:54;97477.31;;;20.35;28.33
62524;BME280;53689;56.878;60.672;2023-10-19T02:21:22;97471.50;;;20.38;30.25
62524;BME280;53689;56.878;60.672;2023-10-19T02:23:50;97480.59;;;20.51;28.81
62524;BME280;53689;56.878;60.672;2023-10-19T02:26:18;97480.00;;;20.49;29.81
62524;BME280;53689;56.878;60.672;2023-10-19T02:28:46;97485.75;;;20.46;31.57
62524;BME280;53689;56.878;60.672;2023-10-19T02:31:14;97489.09;;;20.07;30.44
62524;BME280;53689;56.878;60.672;2023-10-19T02:33:43;97498.75;;;19.81;29.56
62524;BME280;53689;56.878;60.672;2023-10-19T02:36:11;97507.91;;;20.07;29.96
62524;BME280;53689;56.878;60.672;2023-10-19T02:38:40;97499.44;;;20.31;29.67
62524;BME280;53689;56.878;60.672;2023-10-19T02:41:07;97507.91;;;20.34;29.14
62524;BME280;53689;56.878;60.672;2023-10-19T02:43:35;97508.97;;;20.27;28.77
62524;BME280;53689;56.878;60.672;2023-10-19T02:46:04;97518.41;;;19.82;29.06
62524;BME280;53689;56.878;60.672;2023-10-19T02:48:32;97521.94;;;19.89;28.66
62524;BME280;53689;56.878;60.672;2023-10-19T02:51:01;97524.81;;;19.74;29.86
62524;BME280;53689;56.878;60.672;2023-10-19T02:53:30;97523.97;;;19.74;28.90
62524;BME280;53689;56.878;60.672;2023-10-19T02:55:57;97530.19;;;19.74;29.11
62524;BME280;53689;56.878;60.672;2023-10-19T02:58:25;97528.53;;;19.73;28.49
62524;BME280;53689;56.878;60.672;2023-10-19T03:00:54;97523.97;;;19.74;29.11
62524;BME280;53689;56.878;60.672;2023-10-19T03:03:22;97522.28;;;19.59;29.44
62524;BME280;53689;56.878;60.672;2023-10-19T03:05:50;97526.41;;;19.62;29.86
62524;BME280;53689;56.878;60.672;2023-10-19T03:08:20;97529.94;;;19.62;29.05
62524;BME280;53689;56.878;60.672;2023-10-19T03:10:48;97524.50;;;19.49;28.63
62524;BME280;53689;56.878;60.672;2023-10-19T03:13:17;97530.13;;;19.67;28.56
62524;BME280;53689;56.878;60.672;2023-10-19T03:15:46;97525.06;;;20.06;30.30
62524;BME280;53689;56.878;60.672;2023-10-19T03:18:13;97526.53;;;20.43;29.60
62524;BME280;53689;56.878;60.672;2023-10-19T03:20:42;97517.41;;;20.44;28.68
62524;BME280;53689;56.878;60.672;2023-10-19T03:23:10;97514.25;;;19.86;28.42
62524;BME280;53689;56.878;60.672;2023-10-19T03:25:39;97514.75;;;20.30;29.49
62524;BME280;53689;56.878;60.672;2023-10-19T03:28:06;97523.00;;;20.02;28.63
62524;BME280;53689;56.878;60.672;2023-10-19T03:30:35;97532.75;;;20.16;29.50
62524;BME280;53689;56.878;60.672;2023-10-19T03:33:03;97537.69;;;20.13;29.06
62524;BME280;53689;56.878;60.672;2023-10-19T03:35:33;97534.38;;;20.10;30.19
62524;BME280;53689;56.878;60.672;2023-10-19T03:38:01;97538.47;;;19.93;29.24
62524;BME280;53689;56.878;60.672;2023-10-19T03:40:28;97539.75;;;20.10;29.09
62524;BME280;53689;56.878;60.672;2023-10-19T03:43:00;97549.41;;;19.91;28.51
62524;BME280;53689;56.878;60.672;2023-10-19T03:45:29;97550.06;;;20.00;28.80
62524;BME280;53689;56.878;60.672;2023-10-19T03:47:57;97551.13;;;20.13;28.71
62524;BME280;53689;56.878;60.672;2023-10-19T03:50:25;97553.19;;;20.04;28.73
62524;BME280;53689;56.878;60.672;2023-10-19T03:52:53;97555.44;;;20.00;28.84
62524;BME280;53689;56.878;60.672;2023-10-19T03:55:21;97561.66;;;20.48;29.36
62524;BME280;53689;56.878;60.672;2023-10-19T03:57:48;97558.13;;;20.81;29.30
62524;BME280;53689;56.878;60.672;2023-10-19T04:00:19;97566.84;;;20.83;29.38
62524;BME280;53689;56.878;60.672;2023-10-19T04:02:47;97559.16;;;20.66;29.27
62524;BME280;53689;56.878;60.672;2023-10-19T04:05:15;97564.53;;;20.80;29.42
62524;BME280;53689;56.878;60.672;2023-10-19T04:07:43;97574.91;;;20.83;29.16
62524;BME280;53689;56.878;60.672;2023-10-19T04:10:12;97570.34;;;20.30;27.87
62524;BME280;53689;56.878;60.672;2023-10-19T04:12:40;97574.06;;;20.08;29.07
62524;BME280;53689;56.878;60.672;2023-10-19T04:15:08;97576.47;;;19.90;28.86
62524;BME280;53689;56.878;60.672;2023-10-19T04:17:39;97586.47;;;20.43;27.90
62524;BME280;53689;56.878;60.672;2023-10-19T04:20:07;97591.88;;;20.23;31.14
62524;BME280;53689;56.878;60.672;2023-10-19T04:22:35;97584.00;;;20.75;29.67
62524;BME280;53689;56.878;60.672;2023-10-19T04:25:03;97581.09;;;20.77;29.47
62524;BME280;53689;56.878;60.672;2023-10-19T04:27:31;97588.75;;;20.13;29.34
62524;BME280;53689;56.878;60.672;2023-10-19T04:29:59;97596.34;;;19.95;29.57
62524;BME280;53689;56.878;60.672;2023-10-19T04:32:26;97603.59;;;20.02;31.61
62524;BME280;53689;56.878;60.672;2023-10-19T04:34:56;97599.09;;;20.09;28.64
62524;BME280;53689;56.878;60.672;2023-10-19T04:37:24;97595.88;;;19.85;28.20
62524;BME280;53689;56.878;60.672;2023-10-19T04:39:52;97605.34;;;19.67;28.85
62524;BME280;53689;56.878;60.672;2023-10-19T04:42:20;97610.16;;;19.79;29.76
62524;BME280;53689;56.878;60.672;2023-10-19T04:44:48;97614.47;;;19.80;29.60
62524;BME280;53689;56.878;60.672;2023-10-19T04:47:15;97627.25;;;19.71;28.52
62524;BME280;53689;56.878;60.672;2023-10-19T04:49:43;97619.31;;;19.49;29.58
62524;BME280;53689;56.878;60.672;2023-10-19T04:52:12;97620.66;;;19.80;31.08
62524;BME280;53689;56.878;60.672;2023-10-19T04:54:40;97619.34;;;20.18;28.12
62524;BME280;53689;56.878;60.672;2023-10-19T04:57:08;97621.38;;;19.96;29.01
62524;BME280;53689;56.878;60.672;2023-10-19T04:59:36;97620.44;;;19.68;28.70
62524;BME280;53689;56.878;60.672;2023-10-19T05:02:03;97624.06;;;19.96;28.42
62524;BME280;53689;56.878;60.672;2023-10-19T05:04:31;97625.91;;;19.47;28.34
62524;BME280;53689;56.878;60.672;2023-10-19T05:06:59;97620.97;;;19.50;29.05
62524;BME280;53689;56.878;60.672;2023-10-19T05:09:28;97638.56;;;19.60;28.87
62524;BME280;53689;56.878;60.672;2023-10-19T05:11:56;97631.72;;;19.57;29.52
62524;BME280;53689;56.878;60.672;2023-10-19T05:14:23;97636.06;;;19.58;29.10
62524;BME280;53689;56.878;60.672;2023-10-19T05:16:51;97637.09;;;19.50;29.79
62524;BME280;53689;56.878;60.672;2023-10-19T05:19:19;97632.28;;;19.39;28.73
62524;BME280;53689;56.878;60.672;2023-10-19T05:21:46;97643.66;;;19.41;31.54
62524;BME280;53689;56.878;60.672;2023-10-19T05:24:14;97640.97;;;19.48;30.62
62524;BME280;53689;56.878;60.672;2023-10-19T05:26:43;97648.53;;;19.66;29.39
62524;BME280;53689;56.878;60.672;2023-10-19T05:29:11;97648.31;;;19.25;28.72
62524;BME280;53689;56.878;60.672;2023-10-19T05:31:39;97650.31;;;19.52;29.29
62524;BME280;53689;56.878;60.672;2023-10-19T05:34:07;97655.81;;;19.37;28.08
62524;BME280;53689;56.878;60.672;2023-10-19T05:36:36;97642.00;;;19.40;29.02
62524;BME280;53689;56.878;60.672;2023-10-19T05:39:04;97650.28;;;19.10;28.59
62524;BME280;53689;56.878;60.672;2023-10-19T05:41:32;97664.22;;;19.69;29.74
62524;BME280;53689;56.878;60.672;2023-10-19T05:44:01;97662.88;;;19.45;28.99
62524;BME280;53689;56.878;60.672;2023-10-19T05:46:30;97670.03;;;19.31;28.73
62524;BME280;53689;56.878;60.672;2023-10-19T05:48:58;97675.44;;;19.44;28.42
62524;BME280;53689;56.878;60.672;2023-10-19T05:51:25;97672.22;;;19.55;28.83
62524;BME280;53689;56.878;60.672;2023-10-19T05:53:53;97676.88;;;19.82;29.39
62524;BME280;53689;56.878;60.672;2023-10-19T05:56:21;97679.25;;;19.57;29.91
62524;BME280;53689;56.878;60.672;2023-10-19T05:58:50;97670.53;;;19.48;30.09
62524;BME280;53689;56.878;60.672;2023-10-19T06:01:20;97680.88;;;19.51;29.87
62524;BME280;53689;56.878;60.672;2023-10-19T06:03:47;97686.69;;;18.97;28.38
62524;BME280;53689;56.878;60.672;2023-10-19T06:06:15;97693.06;;;18.68;28.18
62524;BME280;53689;56.878;60.672;2023-10-19T06:08:43;97692.28;;;17.79;29.07
62524;BME280;53689;56.878;60.672;2023-10-19T06:11:10;97680.34;;;18.33;30.42
62524;BME280;53689;56.878;60.672;2023-10-19T06:13:38;97691.53;;;18.87;29.15
62524;BME280;53689;56.878;60.672;2023-10-19T06:16:06;97684.28;;;19.03;28.08
62524;BME280;53689;56.878;60.672;2023-10-19T06:18:36;97684.25;;;18.74;29.53
62524;BME280;53689;56.878;60.672;2023-10-19T06:21:05;97674.66;;;19.15;28.12
62524;BME280;53689;56.878;60.672;2023-10-19T06:23:32;97686.19;;;18.87;28.26
62524;BME280;53689;56.878;60.672;2023-10-19T06:26:09;97679.88;;;19.23;29.58
62524;BME280;53689;56.878;60.672;2023-10-19T06:28:37;97670.16;;;18.94;29.07
62524;BME280;53689;56.878;60.672;2023-10-19T06:31:05;97674.50;;;18.73;28.48
62524;BME280;53689;56.878;60.672;2023-10-19T06:33:35;97679.81;;;19.10;29.63
62524;BME280;53689;56.878;60.672;2023-10-19T06:36:04;97683.38;;;18.95;28.26
62524;BME280;53689;56.878;60.672;2023-10-19T06:38:33;97689.75;;;18.94;27.28
62524;BME280;53689;56.878;60.672;2023-10-19T06:41:00;97701.00;;;19.05;27.75
62524;BME280;53689;56.878;60.672;2023-10-19T06:43:28;97700.69;;;18.93;28.24
62524;BME280;53689;56.878;60.672;2023-10-19T06:45:59;97689.13;;;18.92;28.84
62524;BME280;53689;56.878;60.672;2023-10-19T06:48:27;97704.97;;;18.87;28.79
62524;BME280;53689;56.878;60.672;2023-10-19T06:50:58;97699.22;;;18.90;29.19
62524;BME280;53689;56.878;60.672;2023-10-19T06:53:26;97708.59;;;19.23;28.88
62524;BME280;53689;56.878;60.672;2023-10-19T06:55:53;97706.09;;;19.21;28.44
62524;BME280;53689;56.878;60.672;2023-10-19T06:58:22;97709.25;;;19.32;27.93
62524;BME280;53689;56.878;60.672;2023-10-19T07:00:50;97701.00;;;19.33;28.39
62524;BME280;53689;56.878;60.672;2023-10-19T07:03:18;97718.19;;;19.10;28.60
62524;BME280;53689;56.878;60.672;2023-10-19T07:05:46;97727.13;;;18.96;28.84
62524;BME280;53689;56.878;60.672;2023-10-19T07:08:16;97729.06;;;19.02;29.73
62524;BME280;53689;56.878;60.672;2023-10-19T07:10:44;97733.41;;;19.03;28.01
62524;BME280;53689;56.878;60.672;2023-10-19T07:13:12;97740.09;;;19.14;27.70
62524;BME280;53689;56.878;60.672;2023-10-19T07:15:39;97737.19;;;19.79;28.82
62524;BME280;53689;56.878;60.672;2023-10-19T07:18:07;97745.66;;;19.76;29.14
62524;BME280;53689;56.878;60.672;2023-10-19T07:20:37;97738.22;;;19.43;30.50
62524;BME280;53689;56.878;60.672;2023-10-19T07:23:05;97750.63;;;19.79;29.00
62524;BME280;53689;56.878;60.672;2023-10-19T07:25:36;97747.75;;;20.16;28.56
62524;BME280;53689;56.878;60.672;2023-10-19T07:28:04;97752.84;;;19.98;28.32
62524;BME280;53689;56.878;60.672;2023-10-19T07:30:32;97746.28;;;20.14;28.57
62524;BME280;53689;56.878;60.672;2023-10-19T07:33:00;97756.00;;;19.79;28.11
62524;BME280;53689;56.878;60.672;2023-10-19T07:35:28;97753.25;;;20.01;28.32
62524;BME280;53689;56.878;60.672;2023-10-19T07:37:56;97751.84;;;19.77;28.03
62524;BME280;53689;56.878;60.672;2023-10-19T07:40:24;97759.44;;;19.95;28.59
62524;BME280;53689;56.878;60.672;2023-10-19T07:42:54;97767.63;;;19.87;28.16
62524;BME280;53689;56.878;60.672;2023-10-19T07:45:22;97770.16;;;19.60;27.26
62524;BME280;53689;56.878;60.672;2023-10-19T07:47:50;97770.88;;;19.47;27.46
62524;BME280;53689;56.878;60.672;2023-10-19T07:50:18;97770.88;;;19.75;28.37
62524;BME280;53689;56.878;60.672;2023-10-19T07:52:46;97767.50;;;19.31;28.60
62524;BME280;53689;56.878;60.672;2023-10-19T07:55:14;97778.56;;;19.50;28.64
62524;BME280;53689;56.878;60.672;2023-10-19T07:57:43;97782.00;;;19.15;28.57
62524;BME280;53689;56.878;60.672;2023-10-19T08:00:12;97776.00;;;19.13;27.82
62524;BME280;53689;56.878;60.672;2023-10-19T08:02:40;97777.19;;;18.89;28.20
62524;BME280;53689;56.878;60.672;2023-10-19T08:05:08;97783.97;;;18.84;27.79
62524;BME280;53689;56.878;60.672;2023-10-19T08:07:35;97783.38;;;18.67;27.92
62524;BME280;53689;56.878;60.672;2023-10-19T08:10:04;97785.13;;;18.75;27.23
62524;BME280;53689;56.878;60.672;2023-10-19T08:12:32;97788.88;;;18.59;28.22
62524;BME280;53689;56.878;60.672;2023-10-19T08:14:59;97803.06;;;18.75;27.58
62524;BME280;53689;56.878;60.672;2023-10-19T08:17:29;97798.09;;;18.71;27.74
62524;BME280;53689;56.878;60.672;2023-10-19T08:19:57;97799.53;;;19.39;28.17
62524;BME280;53689;56.878;60.672;2023-10-19T08:22:24;97797.41;;;19.57;26.60
62524;BME280;53689;56.878;60.672;2023-10-19T08:24:52;97789.69;;;19.18;27.16
62524;BME280;53689;56.878;60.672;2023-10-19T08:27:21;97802.53;;;18.86;26.84
62524;BME280;53689;56.878;60.672;2023-10-19T08:29:49;97813.78;;;18.75;27.48
62524;BME280;53689;56.878;60.672;2023-10-19T08:32:16;97806.53;;;18.90;27.23
62524;BME280;53689;56.878;60.672;2023-10-19T08:34:48;97819.88;;;18.68;27.36
62524;BME280;53689;56.878;60.672;2023-10-19T08:37:16;97811.25;;;18.88;27.10
62524;BME280;53689;56.878;60.672;2023-10-19T08:39:43;97816.75;;;19.02;26.97
62524;BME280;53689;56.878;60.672;2023-10-19T08:42:11;97816.69;;;18.06;27.11
62524;BME280;53689;56.878;60.672;2023-10-19T08:44:39;97818.81;;;17.04;27.44
62524;BME280;53689;56.878;60.672;2023-10-19T08:47:07;97824.72;;;16.91;26.99
62524;BME280;53689;56.878;60.672;2023-10-19T08:49:36;97814.47;;;17.26;27.80
62524;BME280;53689;56.878;60.672;2023-10-19T08:52:07;97835.22;;;17.39;26.36
62524;BME280;53689;56.878;60.672;2023-10-19T08:54:35;97836.97;;;17.70;26.94
62524;BME280;53689;56.878;60.672;2023-10-19T08:57:03;97835.13;;;17.09;26.98
62524;BME280;53689;56.878;60.672;2023-10-19T08:59:31;97824.09;;;16.26;27.28
62524;BME280;53689;56.878;60.672;2023-10-19T09:02:02;97832.16;;;16.81;26.99
62524;BME280;53689;56.878;60.672;2023-10-19T09:04:30;97829.59;;;17.87;26.09
62524;BME280;53689;56.878;60.672;2023-10-19T09:06:58;97834.72;;;18.12;26.25
62524;BME280;53689;56.878;60.672;2023-10-19T09:09:28;97823.19;;;18.49;26.69
62524;BME280;53689;56.878;60.672;2023-10-19T09:11:55;97838.38;;;18.41;28.60
62524;BME280;53689;56.878;60.672;2023-10-19T09:14:41;97844.72;;;17.80;26.47
62524;BME280;53689;56.878;60.672;2023-10-19T09:17:09;97854.94;;;17.61;26.81
62524;BME280;53689;56.878;60.672;2023-10-19T09:19:40;97850.06;;;17.80;26.15
62524;BME280;53689;56.878;60.672;2023-10-19T09:22:08;97850.84;;;17.89;26.76
62524;BME280;53689;56.878;60.672;2023-10-19T09:24:37;97847.69;;;18.00;26.29
62524;BME280;53689;56.878;60.672;2023-10-19T09:27:05;97849.22;;;18.18;26.09
62524;BME280;53689;56.878;60.672;2023-10-19T09:29:33;97857.59;;;18.30;26.17
62524;BME280;53689;56.878;60.672;2023-10-19T09:32:02;97862.22;;;18.36;25.61
62524;BME280;53689;56.878;60.672;2023-10-19T09:34:31;97855.16;;;18.87;25.34
62524;BME280;53689;56.878;60.672;2023-10-19T09:37:00;97854.00;;;18.38;27.18
62524;BME280;53689;56.878;60.672;2023-10-19T09:39:28;97863.75;;;18.61;26.60
62524;BME280;53689;56.878;60.672;2023-10-19T09:41:59;97869.88;;;18.24;27.47
62524;BME280;53689;56.878;60.672;2023-10-19T09:44:28;97870.09;;;18.23;27.35
62524;BME280;53689;56.878;60.672;2023-10-19T09:46:59;97863.88;;;18.07;26.90
62524;BME280;53689;56.878;60.672;2023-10-19T09:49:28;97880.47;;;18.02;26.71
62524;BME280;53689;56.878;60.672;2023-10-19T09:51:57;97884.34;;;18.00;26.18
62524;BME280;53689;56.878;60.672;2023-10-19T09:54:43;97881.63;;;18.08;26.29
62524;BME280;53689;56.878;60.672;2023-10-19T09:57:18;97881.91;;;18.43;28.36
62524;BME280;53689;56.878;60.672;2023-10-19T09:59:51;97883.84;;;18.20;26.63
62524;BME280;53689;56.878;60.672;2023-10-19T10:02:21;97888.63;;;18.39;26.14
62524;BME280;53689;56.878;60.672;2023-10-19T10:04:52;97881.16;;;18.20;26.90
62524;BME280;53689;56.878;60.672;2023-10-19T10:07:20;97897.47;;;17.95;26.67
62524;BME280;53689;56.878;60.672;2023-10-19T10:10:08;97897.53;;;18.25;26.73
62524;BME280;53689;56.878;60.672;2023-10-19T10:12:37;97901.03;;;18.10;26.82
62524;BME280;53689;56.878;60.672;2023-10-19T10:15:06;97906.06;;;17.90;26.79
62524;BME280;53689;56.878;60.672;2023-10-19T10:17:34;97906.03;;;18.43;28.25
62524;BME280;53689;56.878;60.672;2023-10-19T10:20:29;97902.00;;;19.21;26.84
62524;BME280;53689;56.878;60.672;2023-10-19T10:23:21;97904.53;;;19.51;27.11
62524;BME280;53689;56.878;60.672;2023-10-19T10:25:50;97901.69;;;19.53;26.71
62524;BME280;53689;56.878;60.672;2023-10-19T10:28:19;97913.38;;;19.45;26.72
62524;BME280;53689;56.878;60.672;2023-10-19T10:31:09;97902.31;;;19.33;26.43
62524;BME280;53689;56.878;60.672;2023-10-19T10:33:41;97904.63;;;19.36;27.10
62524;BME280;53689;56.878;60.672;2023-10-19T10:36:09;97923.84;;;19.62;27.68
62524;BME280;53689;56.878;60.672;2023-10-19T10:38:37;97925.00;;;19.74;27.42
62524;BME280;53689;56.878;60.672;2023-10-19T10:41:04;97921.00;;;19.05;26.96
62524;BME280;53689;56.878;60.672;2023-10-19T10:43:34;97920.91;;;18.46;27.18
62524;BME280;53689;56.878;60.672;2023-10-19T10:46:04;97918.22;;;18.61;27.07
62524;BME280;53689;56.878;60.672;2023-10-19T10:48:31;97924.13;;;18.71;27.09
62524;BME280;53689;56.878;60.672;2023-10-19T10:50:59;97926.34;;;18.53;27.03
62524;BME280;53689;56.878;60.672;2023-10-19T10:53:27;97940.41;;;18.40;27.33
62524;BME280;53689;56.878;60.672;2023-10-19T10:55:54;97942.63;;;17.98;27.00
62524;BME280;53689;56.878;60.672;2023-10-19T10:58:22;97944.25;;;18.07;26.49
62524;BME280;53689;56.878;60.672;2023-10-19T11:00:52;97947.97;;;18.36;26.79
62524;BME280;53689;56.878;60.672;2023-10-19T11:03:20;97945.75;;;18.55;26.67
62524;BME280;53689;56.878;60.672;2023-10-19T11:05:48;97948.16;;;18.20;26.66
62524;BME280;53689;56.878;60.672;2023-10-19T11:08:16;97952.53;;;18.36;27.29
62524;BME280;53689;56.878;60.672;2023-10-19T11:10:44;97946.88;;;18.61;27.15
62524;BME280;53689;56.878;60.672;2023-10-19T11:13:14;97946.97;;;18.52;27.24
62524;BME280;53689;56.878;60.672;2023-10-19T11:15:49;97947.31;;;18.64;27.48
62524;BME280;53689;56.878;60.672;2023-10-19T11:18:29;97958.69;;;18.66;26.65
62524;BME280;53689;56.878;60.672;2023-10-19T11:20:58;97945.72;;;19.37;27.57
62524;BME280;53689;56.878;60.672;2023-10-19T11:23:36;97959.19;;;19.65;27.06
62524;BME280;53689;56.878;60.672;2023-10-19T11:26:04;97960.63;;;19.61;27.52
62524;BME280;53689;56.878;60.672;2023-10-19T11:28:33;97955.75;;;19.72;26.81
62524;BME280;53689;56.878;60.672;2023-10-19T11:31:17;97962.81;;;19.51;26.95
62524;BME280;53689;56.878;60.672;2023-10-19T11:33:47;97963.03;;;19.12;26.81
62524;BME280;53689;56.878;60.672;2023-10-19T11:36:15;97963.03;;;18.97;26.59
62524;BME280;53689;56.878;60.672;2023-10-19T11:38:45;97958.66;;;18.96;26.25
62524;BME280;53689;56.878;60.672;2023-10-19T11:41:13;97962.38;;;19.76;26.62
62524;BME280;53689;56.878;60.672;2023-10-19T11:43:42;97969.22;;;18.83;26.21
62524;BME280;53689;56.878;60.672;2023-10-19T11:46:10;97973.53;;;19.14;26.86
62524;BME280;53689;56.878;60.672;2023-10-19T11:48:38;97964.81;;;18.45;26.45
62524;BME280;53689;56.878;60.672;2023-10-19T11:51:08;97964.00;;;18.96;27.50
62524;BME280;53689;56.878;60.672;2023-10-19T11:53:38;97973.13;;;18.65;26.51
62524;BME280;53689;56.878;60.672;2023-10-19T11:56:07;97968.22;;;18.54;26.71
62524;BME280;53689;56.878;60.672;2023-10-19T11:58:36;97974.50;;;18.91;26.17
62524;BME280;53689;56.878;60.672;2023-10-19T12:01:04;97961.09;;;18.91;25.57
62524;BME280;53689;56.878;60.672;2023-10-19T12:03:33;97964.22;;;18.95;25.92
62524;BME280;53689;56.878;60.672;2023-10-19T12:06:01;97974.44;;;18.54;26.15
62524;BME280;53689;56.878;60.672;2023-10-19T12:08:30;97979.97;;;18.53;26.40
62524;BME280;53689;56.878;60.672;2023-10-19T12:10:59;97970.25;;;19.77;25.93
62524;BME280;53689;56.878;60.672;2023-10-19T12:13:27;97974.44;;;19.80;25.99
62524;BME280;53689;56.878;60.672;2023-10-19T12:15:55;97974.34;;;19.51;27.34
62524;BME280;53689;56.878;60.672;2023-10-19T12:18:23;97975.63;;;19.77;26.22
62524;BME280;53689;56.878;60.672;2023-10-19T12:20:51;97976.22;;;19.14;25.85
62524;BME280;53689;56.878;60.672;2023-10-19T12:23:19;97969.88;;;19.37;25.47
62524;BME280;53689;56.878;60.672;2023-10-19T12:25:48;97979.47;;;18.94;27.18
62524;BME280;53689;56.878;60.672;2023-10-19T12:28:23;97977.78;;;19.23;27.08
62524;BME280;53689;56.878;60.672;2023-10-19T12:30:51;97990.09;;;19.18;26.71
62524;BME280;53689;56.878;60.672;2023-10-19T12:33:19;97995.31;;;19.41;27.76
62524;BME280;53689;56.878;60.672;2023-10-19T12:35:47;97991.97;;;19.17;26.75
62524;BME280;53689;56.878;60.672;2023-10-19T12:38:15;97987.13;;;19.27;28.16
62524;BME280;53689;56.878;60.672;2023-10-19T12:40:43;97992.78;;;19.54;27.16
62524;BME280;53689;56.878;60.672;2023-10-19T12:43:13;97985.09;;;19.51;27.62
62524;BME280;53689;56.878;60.672;2023-10-19T12:45:43;97997.75;;;19.36;27.34
62524;BME280;53689;56.878;60.672;2023-10-19T12:48:10;98005.25;;;19.62;27.31
62524;BME280;53689;56.878;60.672;2023-10-19T12:50:38;98002.63;;;19.47;27.44
62524;BME280;53689;56.878;60.672;2023-10-19T12:53:06;98011.97;;;19.73;27.16
62524;BME280;53689;56.878;60.672;2023-10-19T12:55:34;98007.34;;;19.45;27.01
62524;BME280;53689;56.878;60.672;2023-10-19T12:58:01;98004.63;;;19.60;26.94